KMTC/MTC METAR and TAF weather

Enter ICAO airport designator
Station Type Date Time Source
KMTC METAR 2019/08/23 16:56 UTC NOAA

KMTC 231656Z 03010KT 10SM SCT050 23/12 A3017 RMK AO2A SLP220 T02250115 $


Station Type Date Time Source
KMTC Decoded METAR 2019/08/23 16:56 UTC NOAA

Station name not available
Aug 23, 2019 - 12:56 PM EDT / 2019.08.23 1656 UTC
Wind: from the NNE (030 degrees) at 12 MPH (10 KT):0
Visibility: 10 mile(s):0
Sky conditions: partly cloudy
Temperature: 72.5 F (22.5 C)
Dew Point: 52.7 F (11.5 C)
Relative Humidity: 49%
Pressure (altimeter): 30.17 in. Hg (1021 hPa)
ob: KMTC 231656Z 03010KT 10SM SCT050 23/12 A3017 RMK AO2A SLP220 T02250115
cycle: 17

Station Type Date Time Source
KMTC TAF 2019/08/23 17:09 UTC NOAA

TAF TAF KMTC 231700Z 2317/2423 36009KT 9999 FEW050 QNH3011INS
BECMG 2415/2416 04012KT 9999 SCT030 QNH3017INS TX26/2322Z TN16/2410Z

Example: see airport list